sensor_id;sensor_type;location;lat;lon;timestamp;pressure;altitude;pressure_sealevel;temperature;humidity
73860;BME280;62197;51.632;13.700;2022-12-10T00:01:55;99446.66;;;-0.88;100.00
73860;BME280;62197;51.632;13.700;2022-12-10T00:04:21;99456.44;;;-0.87;100.00
73860;BME280;62197;51.632;13.700;2022-12-10T00:06:46;99448.50;;;-0.88;100.00
73860;BME280;62197;51.632;13.700;2022-12-10T00:09:14;99450.38;;;-0.89;100.00
73860;BME280;62197;51.632;13.700;2022-12-10T00:11:41;99450.13;;;-0.94;100.00
73860;BME280;62197;51.632;13.700;2022-12-10T00:14:06;99453.81;;;-0.80;100.00
73860;BME280;62197;51.632;13.700;2022-12-10T00:16:32;99453.72;;;-0.87;100.00
73860;BME280;62197;51.632;13.700;2022-12-10T00:18:58;99452.72;;;-0.86;100.00
73860;BME280;62197;51.632;13.700;2022-12-10T00:21:26;99446.00;;;-0.90;100.00
73860;BME280;62197;51.632;13.700;2022-12-10T00:23:52;99462.50;;;-0.85;100.00
73860;BME280;62197;51.632;13.700;2022-12-10T00:26:20;99456.72;;;-0.82;100.00
73860;BME280;62197;51.632;13.700;2022-12-10T00:28:47;99454.78;;;-0.88;100.00
73860;BME280;62197;51.632;13.700;2022-12-10T00:31:16;99454.22;;;-0.83;100.00
73860;BME280;62197;51.632;13.700;2022-12-10T00:33:42;99464.56;;;-0.87;100.00
73860;BME280;62197;51.632;13.700;2022-12-10T00:36:19;99454.97;;;-0.89;100.00
73860;BME280;62197;51.632;13.700;2022-12-10T00:38:45;99462.25;;;-0.90;100.00
73860;BME280;62197;51.632;13.700;2022-12-10T00:41:12;99470.47;;;-0.83;100.00
73860;BME280;62197;51.632;13.700;2022-12-10T00:43:37;99453.47;;;-0.92;100.00
73860;BME280;62197;51.632;13.700;2022-12-10T00:46:03;99467.28;;;-0.87;100.00
73860;BME280;62197;51.632;13.700;2022-12-10T00:48:29;99470.81;;;-0.86;100.00
73860;BME280;62197;51.632;13.700;2022-12-10T00:51:03;99470.69;;;-0.78;100.00
73860;BME280;62197;51.632;13.700;2022-12-10T00:53:31;99469.22;;;-0.81;100.00
73860;BME280;62197;51.632;13.700;2022-12-10T00:55:57;99471.28;;;-0.83;100.00
73860;BME280;62197;51.632;13.700;2022-12-10T00:58:23;99454.22;;;-0.83;100.00
73860;BME280;62197;51.632;13.700;2022-12-10T01:00:51;99466.78;;;-0.76;100.00
73860;BME280;62197;51.632;13.700;2022-12-10T01:03:16;99462.78;;;-0.80;100.00
73860;BME280;62197;51.632;13.700;2022-12-10T01:05:41;99466.50;;;-0.81;100.00
73860;BME280;62197;51.632;13.700;2022-12-10T01:08:07;99459.66;;;-0.77;100.00
73860;BME280;62197;51.632;13.700;2022-12-10T01:10:32;99463.41;;;-0.78;100.00
73860;BME280;62197;51.632;13.700;2022-12-10T01:12:58;99462.56;;;-0.78;100.00
73860;BME280;62197;51.632;13.700;2022-12-10T01:15:23;99462.97;;;-0.81;100.00
73860;BME280;62197;51.632;13.700;2022-12-10T01:17:48;99456.84;;;-0.90;100.00
73860;BME280;62197;51.632;13.700;2022-12-10T01:20:14;99464.56;;;-0.87;100.00
73860;BME280;62197;51.632;13.700;2022-12-10T01:22:39;99459.75;;;-0.92;100.00
73860;BME280;62197;51.632;13.700;2022-12-10T01:25:05;99463.75;;;-0.87;100.00
73860;BME280;62197;51.632;13.700;2022-12-10T01:27:30;99461.84;;;-0.87;100.00
73860;BME280;62197;51.632;13.700;2022-12-10T01:29:55;99475.03;;;-0.84;100.00
73860;BME280;62197;51.632;13.700;2022-12-10T01:32:21;99473.59;;;-0.80;100.00
73860;BME280;62197;51.632;13.700;2022-12-10T01:34:46;99477.16;;;-0.79;100.00
73860;BME280;62197;51.632;13.700;2022-12-10T01:37:12;99464.19;;;-0.84;100.00
73860;BME280;62197;51.632;13.700;2022-12-10T01:39:37;99467.91;;;-0.85;100.00
73860;BME280;62197;51.632;13.700;2022-12-10T01:42:03;99482.31;;;-0.84;100.00
73860;BME280;62197;51.632;13.700;2022-12-10T01:46:55;99487.53;;;-0.83;100.00
73860;BME280;62197;51.632;13.700;2022-12-10T01:49:24;99483.03;;;-0.76;100.00
73860;BME280;62197;51.632;13.700;2022-12-10T01:51:53;99479.28;;;-0.75;100.00
73860;BME280;62197;51.632;13.700;2022-12-10T01:54:23;99480.69;;;-0.79;100.00
73860;BME280;62197;51.632;13.700;2022-12-10T01:56:59;99478.75;;;-0.85;100.00
73860;BME280;62197;51.632;13.700;2022-12-10T01:59:25;99475.41;;;-0.87;100.00
73860;BME280;62197;51.632;13.700;2022-12-10T02:05:25;99472.97;;;-0.82;100.00
73860;BME280;62197;51.632;13.700;2022-12-10T02:08:10;99468.41;;;-0.81;100.00
73860;BME280;62197;51.632;13.700;2022-12-10T02:10:50;99470.63;;;-0.85;100.00
73860;BME280;62197;51.632;13.700;2022-12-10T02:13:38;99466.25;;;-0.86;100.00
73860;BME280;62197;51.632;13.700;2022-12-10T02:16:05;99464.28;;;-0.77;100.00
73860;BME280;62197;51.632;13.700;2022-12-10T02:18:39;99462.44;;;-0.92;100.00
73860;BME280;62197;51.632;13.700;2022-12-10T02:21:13;99452.47;;;-0.91;100.00
73860;BME280;62197;51.632;13.700;2022-12-10T02:23:46;99458.25;;;-0.94;100.00
73860;BME280;62197;51.632;13.700;2022-12-10T02:31:45;99470.63;;;-0.85;100.00
73860;BME280;62197;51.632;13.700;2022-12-10T02:34:12;99467.03;;;-0.92;100.00
73860;BME280;62197;51.632;13.700;2022-12-10T02:36:42;99468.00;;;-0.78;100.00
73860;BME280;62197;51.632;13.700;2022-12-10T02:39:27;99472.13;;;-0.82;100.00
73860;BME280;62197;51.632;13.700;2022-12-10T02:41:56;99462.00;;;-0.95;100.00
73860;BME280;62197;51.632;13.700;2022-12-10T02:44:24;99460.75;;;-0.93;100.00
73860;BME280;62197;51.632;13.700;2022-12-10T02:46:52;99467.91;;;-0.85;100.00
73860;BME280;62197;51.632;13.700;2022-12-10T02:49:18;99473.97;;;-0.83;100.00
73860;BME280;62197;51.632;13.700;2022-12-10T02:51:44;99466.78;;;-0.76;100.00
73860;BME280;62197;51.632;13.700;2022-12-10T02:54:44;99478.06;;;-0.72;100.00
73860;BME280;62197;51.632;13.700;2022-12-10T02:57:43;99471.28;;;-0.83;100.00
73860;BME280;62197;51.632;13.700;2022-12-10T03:00:15;99460.59;;;-0.91;100.00
73860;BME280;62197;51.632;13.700;2022-12-10T03:05:42;99472.97;;;-0.82;100.00
73860;BME280;62197;51.632;13.700;2022-12-10T03:08:26;99466.00;;;-0.91;100.00
73860;BME280;62197;51.632;13.700;2022-12-10T03:11:09;99469.94;;;-0.94;100.00
73860;BME280;62197;51.632;13.700;2022-12-10T03:13:40;99469.97;;;-0.87;100.00
73860;BME280;62197;51.632;13.700;2022-12-10T03:16:06;99470.63;;;-0.85;100.00
73860;BME280;62197;51.632;13.700;2022-12-10T03:18:34;99474.50;;;-0.73;100.00
73860;BME280;62197;51.632;13.700;2022-12-10T03:21:01;99472.97;;;-0.82;100.00
73860;BME280;62197;51.632;13.700;2022-12-10T03:23:29;99466.81;;;-0.91;100.00
73860;BME280;62197;51.632;13.700;2022-12-10T03:25:54;99463.66;;;-0.94;100.00
73860;BME280;62197;51.632;13.700;2022-12-10T03:28:21;99466.94;;;-0.99;100.00
73860;BME280;62197;51.632;13.700;2022-12-10T03:30:48;99462.56;;;-1.00;100.00
73860;BME280;62197;51.632;13.700;2022-12-10T03:33:15;99475.78;;;-0.90;100.00
73860;BME280;62197;51.632;13.700;2022-12-10T03:35:41;99469.09;;;-0.94;100.00
73860;BME280;62197;51.632;13.700;2022-12-10T03:38:07;99464.13;;;-0.91;100.00
73860;BME280;62197;51.632;13.700;2022-12-10T03:40:33;99478.75;;;-0.85;100.00
73860;BME280;62197;51.632;13.700;2022-12-10T03:42:58;99463.66;;;-0.94;100.00
73860;BME280;62197;51.632;13.700;2022-12-10T03:45:24;99468.25;;;-0.95;100.00
73860;BME280;62197;51.632;13.700;2022-12-10T03:47:49;99471.16;;;-0.96;100.00
73860;BME280;62197;51.632;13.700;2022-12-10T03:50:14;99479.66;;;-0.99;100.00
73860;BME280;62197;51.632;13.700;2022-12-10T03:52:40;99473.19;;;-0.98;100.00
73860;BME280;62197;51.632;13.700;2022-12-10T03:55:05;99470.59;;;-1.06;100.00
73860;BME280;62197;51.632;13.700;2022-12-10T03:57:31;99470.25;;;-1.03;100.00
73860;BME280;62197;51.632;13.700;2022-12-10T03:59:57;99466.25;;;-1.07;100.00
73860;BME280;62197;51.632;13.700;2022-12-10T04:02:22;99471.25;;;-1.04;100.00
73860;BME280;62197;51.632;13.700;2022-12-10T04:04:47;99473.97;;;-1.04;100.00
73860;BME280;62197;51.632;13.700;2022-12-10T04:07:13;99466.88;;;-1.05;100.00
73860;BME280;62197;51.632;13.700;2022-12-10T04:09:38;99472.84;;;-0.95;100.00
73860;BME280;62197;51.632;13.700;2022-12-10T04:12:03;99485.34;;;-0.94;100.00
73860;BME280;62197;51.632;13.700;2022-12-10T04:14:29;99490.59;;;-1.07;100.00
73860;BME280;62197;51.632;13.700;2022-12-10T04:17:13;99479.97;;;-1.09;100.00
73860;BME280;62197;51.632;13.700;2022-12-10T04:19:39;99482.19;;;-1.12;100.00
73860;BME280;62197;51.632;13.700;2022-12-10T04:22:05;99478.03;;;-1.15;100.00
73860;BME280;62197;51.632;13.700;2022-12-10T04:24:49;99482.19;;;-1.12;100.00
73860;BME280;62197;51.632;13.700;2022-12-10T04:27:36;99483.50;;;-1.08;100.00
73860;BME280;62197;51.632;13.700;2022-12-10T04:30:04;99478.84;;;-1.14;100.00
73860;BME280;62197;51.632;13.700;2022-12-10T04:32:29;99483.91;;;-1.11;100.00
73860;BME280;62197;51.632;13.700;2022-12-10T04:34:55;99475.22;;;-1.07;100.00
73860;BME280;62197;51.632;13.700;2022-12-10T04:37:21;99478.09;;;-1.08;100.00
73860;BME280;62197;51.632;13.700;2022-12-10T04:39:49;99479.50;;;-1.12;100.00
73860;BME280;62197;51.632;13.700;2022-12-10T04:42:14;99476.97;;;-1.14;100.00
73860;BME280;62197;51.632;13.700;2022-12-10T04:44:40;99478.47;;;-1.11;100.00
73860;BME280;62197;51.632;13.700;2022-12-10T04:47:07;99477.19;;;-1.15;100.00
73860;BME280;62197;51.632;13.700;2022-12-10T04:49:32;99480.16;;;-1.10;100.00
73860;BME280;62197;51.632;13.700;2022-12-10T04:51:58;99490.97;;;-1.10;100.00
73860;BME280;62197;51.632;13.700;2022-12-10T04:54:23;99487.16;;;-1.16;100.00
73860;BME280;62197;51.632;13.700;2022-12-10T04:56:49;99486.50;;;-1.18;100.00
73860;BME280;62197;51.632;13.700;2022-12-10T04:59:14;99489.50;;;-1.13;100.00
73860;BME280;62197;51.632;13.700;2022-12-10T05:01:40;99480.69;;;-1.00;100.00
73860;BME280;62197;51.632;13.700;2022-12-10T05:04:07;99482.38;;;-0.99;100.00
73860;BME280;62197;51.632;13.700;2022-12-10T05:06:33;99492.72;;;-1.03;100.00
73860;BME280;62197;51.632;13.700;2022-12-10T05:08:58;99491.16;;;-0.76;100.00
73860;BME280;62197;51.632;13.700;2022-12-10T05:11:25;99492.03;;;-0.90;100.00
73860;BME280;62197;51.632;13.700;2022-12-10T05:13:55;99497.78;;;-1.00;100.00
73860;BME280;62197;51.632;13.700;2022-12-10T05:16:22;99490.75;;;-0.94;100.00
73860;BME280;62197;51.632;13.700;2022-12-10T05:18:49;99491.16;;;-0.97;100.00
73860;BME280;62197;51.632;13.700;2022-12-10T05:21:17;99495.25;;;-1.01;100.00
73860;BME280;62197;51.632;13.700;2022-12-10T05:23:45;99499.75;;;-1.08;100.00
73860;BME280;62197;51.632;13.700;2022-12-10T05:26:11;99495.63;;;-1.04;100.00
73860;BME280;62197;51.632;13.700;2022-12-10T05:28:40;99499.69;;;-1.15;100.00
73860;BME280;62197;51.632;13.700;2022-12-10T05:31:14;99501.81;;;-1.10;100.00
73860;BME280;62197;51.632;13.700;2022-12-10T05:33:41;99492.72;;;-1.03;100.00
73860;BME280;62197;51.632;13.700;2022-12-10T05:36:06;99489.56;;;-1.06;100.00
73860;BME280;62197;51.632;13.700;2022-12-10T05:38:33;99495.91;;;-0.99;100.00
73860;BME280;62197;51.632;13.700;2022-12-10T05:41:08;99496.38;;;-1.10;100.00
73860;BME280;62197;51.632;13.700;2022-12-10T05:43:33;99507.22;;;-1.10;100.00
73860;BME280;62197;51.632;13.700;2022-12-10T05:46:04;99498.94;;;-1.23;100.00
73860;BME280;62197;51.632;13.700;2022-12-10T05:48:30;99498.44;;;-1.12;100.00
73860;BME280;62197;51.632;13.700;2022-12-10T05:50:56;99494.19;;;-1.21;100.00
73860;BME280;62197;51.632;13.700;2022-12-10T05:53:22;99488.22;;;-1.31;100.00
73860;BME280;62197;51.632;13.700;2022-12-10T05:55:47;99498.22;;;-1.32;100.00
73860;BME280;62197;51.632;13.700;2022-12-10T05:58:13;99486.00;;;-1.42;100.00
73860;BME280;62197;51.632;13.700;2022-12-10T06:00:39;99496.84;;;-1.42;100.00
73860;BME280;62197;51.632;13.700;2022-12-10T06:03:05;99498.78;;;-1.36;100.00
73860;BME280;62197;51.632;13.700;2022-12-10T06:05:36;99502.16;;;-1.34;100.00
73860;BME280;62197;51.632;13.700;2022-12-10T06:08:02;99502.63;;;-1.45;100.00
73860;BME280;62197;51.632;13.700;2022-12-10T06:10:27;99512.69;;;-1.39;100.00
73860;BME280;62197;51.632;13.700;2022-12-10T06:12:52;99507.00;;;-1.44;100.00
73860;BME280;62197;51.632;13.700;2022-12-10T06:15:18;99509.91;;;-1.46;100.00
73860;BME280;62197;51.632;13.700;2022-12-10T06:17:43;99515.53;;;-1.47;100.00
73860;BME280;62197;51.632;13.700;2022-12-10T06:20:09;99513.47;;;-1.45;100.00
73860;BME280;62197;51.632;13.700;2022-12-10T06:22:34;99515.13;;;-1.44;100.00
73860;BME280;62197;51.632;13.700;2022-12-10T06:25:00;99514.13;;;-1.43;100.00
73860;BME280;62197;51.632;13.700;2022-12-10T06:27:25;99525.09;;;-1.45;100.00
73860;BME280;62197;51.632;13.700;2022-12-10T06:29:50;99513.47;;;-1.45;100.00
73860;BME280;62197;51.632;13.700;2022-12-10T06:32:16;99525.94;;;-1.44;100.00
73860;BME280;62197;51.632;13.700;2022-12-10T06:34:41;99524.28;;;-1.45;100.00
73860;BME280;62197;51.632;13.700;2022-12-10T06:37:07;99526.25;;;-1.54;100.00
73860;BME280;62197;51.632;13.700;2022-12-10T06:39:32;99524.75;;;-1.56;100.00
73860;BME280;62197;51.632;13.700;2022-12-10T06:41:57;99528.75;;;-1.52;100.00
73860;BME280;62197;51.632;13.700;2022-12-10T06:44:23;99514.97;;;-1.57;100.00
73860;BME280;62197;51.632;13.700;2022-12-10T06:46:48;99518.41;;;-1.63;100.00
73860;BME280;62197;51.632;13.700;2022-12-10T06:49:13;99521.13;;;-1.63;100.00
73860;BME280;62197;51.632;13.700;2022-12-10T06:51:39;99530.53;;;-1.59;100.00
73860;BME280;62197;51.632;13.700;2022-12-10T06:54:04;99523.44;;;-1.60;100.00
73860;BME280;62197;51.632;13.700;2022-12-10T06:56:30;99524.47;;;-1.61;100.00
73860;BME280;62197;51.632;13.700;2022-12-10T06:58:55;99537.81;;;-1.60;100.00
73860;BME280;62197;51.632;13.700;2022-12-10T07:01:23;99535.28;;;-1.61;100.00
73860;BME280;62197;51.632;13.700;2022-12-10T07:03:52;99531.66;;;-1.54;100.00
73860;BME280;62197;51.632;13.700;2022-12-10T07:06:18;99534.91;;;-1.58;100.00
73860;BME280;62197;51.632;13.700;2022-12-10T07:08:44;99545.25;;;-1.62;100.00
73860;BME280;62197;51.632;13.700;2022-12-10T07:11:12;99536.88;;;-1.67;100.00
73860;BME280;62197;51.632;13.700;2022-12-10T07:13:37;99543.94;;;-1.66;100.00
73860;BME280;62197;51.632;13.700;2022-12-10T07:16:03;99549.38;;;-1.66;100.00
73860;BME280;62197;51.632;13.700;2022-12-10T07:18:29;99547.69;;;-1.67;100.00
73860;BME280;62197;51.632;13.700;2022-12-10T07:20:54;99548.25;;;-1.71;100.00
73860;BME280;62197;51.632;13.700;2022-12-10T07:23:20;99555.03;;;-1.75;100.00
73860;BME280;62197;51.632;13.700;2022-12-10T07:25:45;99548.06;;;-1.85;100.00
73860;BME280;62197;51.632;13.700;2022-12-10T07:28:11;99542.84;;;-1.86;100.00
73860;BME280;62197;51.632;13.700;2022-12-10T07:30:36;99554.19;;;-1.76;100.00
73860;BME280;62197;51.632;13.700;2022-12-10T07:33:01;99550.69;;;-1.76;100.00
73860;BME280;62197;51.632;13.700;2022-12-10T07:35:27;99559.44;;;-1.74;100.00
73860;BME280;62197;51.632;13.700;2022-12-10T07:37:52;99555.63;;;-1.65;100.00
73860;BME280;62197;51.632;13.700;2022-12-10T07:40:17;99551.59;;;-1.69;100.00
73860;BME280;62197;51.632;13.700;2022-12-10T07:42:43;99562.16;;;-1.74;100.00
73860;BME280;62197;51.632;13.700;2022-12-10T07:45:08;99560.09;;;-1.72;100.00
73860;BME280;62197;51.632;13.700;2022-12-10T07:47:35;99566.97;;;-1.70;100.00
73860;BME280;62197;51.632;13.700;2022-12-10T07:50:02;99564.47;;;-1.71;100.00
73860;BME280;62197;51.632;13.700;2022-12-10T07:52:27;99557.47;;;-1.80;100.00
73860;BME280;62197;51.632;13.700;2022-12-10T07:54:52;99566.13;;;-1.85;100.00
73860;BME280;62197;51.632;13.700;2022-12-10T07:57:18;99567.34;;;-1.88;100.00
73860;BME280;62197;51.632;13.700;2022-12-10T07:59:43;99564.09;;;-1.83;100.00
73860;BME280;62197;51.632;13.700;2022-12-10T08:02:09;99570.34;;;-1.83;100.00
73860;BME280;62197;51.632;13.700;2022-12-10T08:04:34;99564.34;;;-1.93;100.00
73860;BME280;62197;51.632;13.700;2022-12-10T08:07:00;99570.81;;;-1.94;100.00
73860;BME280;62197;51.632;13.700;2022-12-10T08:09:25;99567.34;;;-1.88;100.00
73860;BME280;62197;51.632;13.700;2022-12-10T08:11:52;99566.72;;;-1.75;100.00
73860;BME280;62197;51.632;13.700;2022-12-10T08:14:17;99570.16;;;-1.66;100.00
73860;BME280;62197;51.632;13.700;2022-12-10T08:16:42;99575.38;;;-1.79;100.00
73860;BME280;62197;51.632;13.700;2022-12-10T08:19:08;99566.59;;;-1.82;100.00
73860;BME280;62197;51.632;13.700;2022-12-10T08:21:33;99575.09;;;-1.85;100.00
73860;BME280;62197;51.632;13.700;2022-12-10T08:23:59;99573.78;;;-1.74;100.00
73860;BME280;62197;51.632;13.700;2022-12-10T08:26:27;99577.88;;;-1.78;100.00
73860;BME280;62197;51.632;13.700;2022-12-10T08:28:54;99577.88;;;-1.78;100.00
73860;BME280;62197;51.632;13.700;2022-12-10T08:31:21;99583.06;;;-1.68;100.00
73860;BME280;62197;51.632;13.700;2022-12-10T08:33:47;99567.84;;;-1.84;100.00
73860;BME280;62197;51.632;13.700;2022-12-10T08:36:14;99582.09;;;-1.75;100.00
73860;BME280;62197;51.632;13.700;2022-12-10T08:38:43;99581.50;;;-1.86;100.00
73860;BME280;62197;51.632;13.700;2022-12-10T08:41:20;99579.47;;;-1.84;100.00
73860;BME280;62197;51.632;13.700;2022-12-10T08:43:46;99580.78;;;-1.79;100.00
73860;BME280;62197;51.632;13.700;2022-12-10T08:46:13;99594.22;;;-1.71;100.00
73860;BME280;62197;51.632;13.700;2022-12-10T08:48:39;99598.97;;;-1.73;100.00
73860;BME280;62197;51.632;13.700;2022-12-10T08:51:06;99595.25;;;-1.72;100.00
73860;BME280;62197;51.632;13.700;2022-12-10T08:53:32;99589.28;;;-0.95;100.00
73860;BME280;62197;51.632;13.700;2022-12-10T08:55:58;99586.13;;;-1.28;100.00
73860;BME280;62197;51.632;13.700;2022-12-10T08:58:23;99592.09;;;-1.47;100.00
73860;BME280;62197;51.632;13.700;2022-12-10T09:00:49;99584.25;;;-1.27;100.00
73860;BME280;62197;51.632;13.700;2022-12-10T09:03:15;99595.53;;;-1.09;100.00
73860;BME280;62197;51.632;13.700;2022-12-10T09:05:41;99596.75;;;-0.97;100.00
73860;BME280;62197;51.632;13.700;2022-12-10T09:08:06;99595.00;;;-1.19;100.00
73860;BME280;62197;51.632;13.700;2022-12-10T09:10:32;99585.84;;;-1.18;100.00
73860;BME280;62197;51.632;13.700;2022-12-10T09:12:57;99611.94;;;-0.96;100.00
73860;BME280;62197;51.632;13.700;2022-12-10T09:15:22;99608.34;;;-1.03;100.00
73860;BME280;62197;51.632;13.700;2022-12-10T09:17:48;99609.75;;;-0.36;100.00
73860;BME280;62197;51.632;13.700;2022-12-10T09:20:13;99607.19;;;-0.94;100.00
73860;BME280;62197;51.632;13.700;2022-12-10T09:22:39;99601.28;;;-0.83;100.00
73860;BME280;62197;51.632;13.700;2022-12-10T09:25:06;99599.66;;;-1.13;100.00
73860;BME280;62197;51.632;13.700;2022-12-10T09:27:32;99605.25;;;-1.29;100.00
73860;BME280;62197;51.632;13.700;2022-12-10T09:29:57;99603.13;;;-0.69;100.00
73860;BME280;62197;51.632;13.700;2022-12-10T09:32:23;99600.31;;;-1.11;100.00
73860;BME280;62197;51.632;13.700;2022-12-10T09:34:51;99597.47;;;-0.53;100.00
73860;BME280;62197;51.632;13.700;2022-12-10T09:37:17;99603.38;;;-1.00;100.00
73860;BME280;62197;51.632;13.700;2022-12-10T09:39:43;99603.63;;;-0.95;100.00
73860;BME280;62197;51.632;13.700;2022-12-10T09:45:11;99596.69;;;-1.18;100.00
73860;BME280;62197;51.632;13.700;2022-12-10T09:47:55;99578.09;;;-1.21;100.00
73860;BME280;62197;51.632;13.700;2022-12-10T09:50:29;99592.44;;;-0.56;100.00
73860;BME280;62197;51.632;13.700;2022-12-10T09:52:57;99597.03;;;-0.56;100.00
73860;BME280;62197;51.632;13.700;2022-12-10T09:55:36;99589.38;;;-1.03;100.00
73860;BME280;62197;51.632;13.700;2022-12-10T09:58:04;99597.56;;;-0.82;100.00
73860;BME280;62197;51.632;13.700;2022-12-10T10:00:37;99593.16;;;-0.83;100.00
73860;BME280;62197;51.632;13.700;2022-12-10T10:03:03;99574.78;;;-1.02;100.00
73860;BME280;62197;51.632;13.700;2022-12-10T10:05:30;99586.28;;;-0.85;100.00
73860;BME280;62197;51.632;13.700;2022-12-10T10:08:06;99586.44;;;-0.87;100.00
73860;BME280;62197;51.632;13.700;2022-12-10T10:10:39;99586.78;;;-0.75;100.00
73860;BME280;62197;51.632;13.700;2022-12-10T10:15:41;99584.97;;;-0.89;100.00
73860;BME280;62197;51.632;13.700;2022-12-10T10:18:18;99587.13;;;-1.14;100.00
73860;BME280;62197;51.632;13.700;2022-12-10T10:20:46;99583.25;;;-0.76;100.00
73860;BME280;62197;51.632;13.700;2022-12-10T10:23:14;99592.13;;;-0.82;100.00
73860;BME280;62197;51.632;13.700;2022-12-10T10:25:40;99582.50;;;-0.84;100.00
73860;BME280;62197;51.632;13.700;2022-12-10T10:28:05;99595.50;;;-0.80;100.00
73860;BME280;62197;51.632;13.700;2022-12-10T10:30:30;99583.38;;;-0.84;100.00
73860;BME280;62197;51.632;13.700;2022-12-10T10:32:57;99587.03;;;-1.06;100.00
73860;BME280;62197;51.632;13.700;2022-12-10T10:35:30;99587.72;;;-0.83;100.00
73860;BME280;62197;51.632;13.700;2022-12-10T10:38:08;99583.13;;;-1.04;100.00
73860;BME280;62197;51.632;13.700;2022-12-10T10:40:41;99570.66;;;-1.34;100.00
73860;BME280;62197;51.632;13.700;2022-12-10T10:43:14;99569.81;;;-1.34;100.00
73860;BME280;62197;51.632;13.700;2022-12-10T10:45:49;99574.63;;;-1.15;100.00
73860;BME280;62197;51.632;13.700;2022-12-10T10:48:19;99579.09;;;-1.08;100.00
73860;BME280;62197;51.632;13.700;2022-12-10T10:54:12;99580.44;;;-1.18;100.00
73860;BME280;62197;51.632;13.700;2022-12-10T10:56:22;99582.19;;;-1.11;100.00
73860;BME280;62197;51.632;13.700;2022-12-10T10:58:57;99569.97;;;-1.21;100.00
73860;BME280;62197;51.632;13.700;2022-12-10T11:01:25;99572.41;;;-1.26;100.00
73860;BME280;62197;51.632;13.700;2022-12-10T11:03:57;99573.88;;;-1.09;100.00
73860;BME280;62197;51.632;13.700;2022-12-10T11:06:23;99559.91;;;-1.27;100.00
73860;BME280;62197;51.632;13.700;2022-12-10T11:08:50;99555.63;;;-1.36;100.00
73860;BME280;62197;51.632;13.700;2022-12-10T11:11:19;99573.72;;;-1.22;100.00
73860;BME280;62197;51.632;13.700;2022-12-10T11:13:46;99566.25;;;-1.20;100.00
73860;BME280;62197;51.632;13.700;2022-12-10T11:18:41;99562.41;;;-1.26;100.00
73860;BME280;62197;51.632;13.700;2022-12-10T11:23:41;99571.53;;;-1.12;100.00
73860;BME280;62197;51.632;13.700;2022-12-10T11:34:39;99563.66;;;-1.28;100.00
73860;BME280;62197;51.632;13.700;2022-12-10T11:37:25;99574.38;;;-1.20;100.00
73860;BME280;62197;51.632;13.700;2022-12-10T11:40:01;99571.66;;;-1.20;100.00
73860;BME280;62197;51.632;13.700;2022-12-10T11:43:43;99568.66;;;-1.11;100.00
73860;BME280;62197;51.632;13.700;2022-12-10T11:51:35;99573.19;;;-0.97;100.00
73860;BME280;62197;51.632;13.700;2022-12-10T11:54:31;99566.41;;;-1.07;100.00
73860;BME280;62197;51.632;13.700;2022-12-10T11:57:09;99579.47;;;-0.96;100.00
73860;BME280;62197;51.632;13.700;2022-12-10T11:59:48;99569.84;;;-0.99;100.00
73860;BME280;62197;51.632;13.700;2022-12-10T12:08:29;99579.47;;;-0.96;100.00
73860;BME280;62197;51.632;13.700;2022-12-10T12:14:22;99560.72;;;-1.12;100.00
73860;BME280;62197;51.632;13.700;2022-12-10T12:17:41;99568.97;;;-1.20;100.00
73860;BME280;62197;51.632;13.700;2022-12-10T12:19:50;99572.88;;;-1.23;100.00
73860;BME280;62197;51.632;13.700;2022-12-10T12:22:33;99570.38;;;-1.24;100.00
73860;BME280;62197;51.632;13.700;2022-12-10T12:25:22;99578.00;;;-1.13;100.00
73860;BME280;62197;51.632;13.700;2022-12-10T12:27:57;99586.13;;;-1.13;100.00
73860;BME280;62197;51.632;13.700;2022-12-10T12:30:25;99578.38;;;-1.16;100.00
73860;BME280;62197;51.632;13.700;2022-12-10T12:33:01;99577.72;;;-1.18;100.00
73860;BME280;62197;51.632;13.700;2022-12-10T12:35:41;99586.59;;;-1.24;100.00
73860;BME280;62197;51.632;13.700;2022-12-10T12:38:31;99588.06;;;-1.22;100.00
73860;BME280;62197;51.632;13.700;2022-12-10T12:49:24;99582.50;;;-1.20;100.00
73860;BME280;62197;51.632;13.700;2022-12-10T12:54:40;99579.41;;;-1.17;100.00
73860;BME280;62197;51.632;13.700;2022-12-10T12:57:32;99564.84;;;-1.31;100.00
73860;BME280;62197;51.632;13.700;2022-12-10T13:00:03;99587.97;;;-1.14;100.00
73860;BME280;62197;51.632;13.700;2022-12-10T13:05:24;99589.56;;;-1.19;100.00
73860;BME280;62197;51.632;13.700;2022-12-10T13:08:20;99590.63;;;-1.20;100.00
73860;BME280;62197;51.632;13.700;2022-12-10T13:13:39;99593.84;;;-1.10;100.00
73860;BME280;62197;51.632;13.700;2022-12-10T13:16:46;99595.53;;;-1.09;100.00
73860;BME280;62197;51.632;13.700;2022-12-10T13:22:09;99595.63;;;-1.17;100.00
73860;BME280;62197;51.632;13.700;2022-12-10T13:32:20;99604.91;;;-1.26;100.00
73860;BME280;62197;51.632;13.700;2022-12-10T13:40:14;99614.59;;;-1.17;100.00
73860;BME280;62197;51.632;13.700;2022-12-10T13:42:44;99619.16;;;-1.18;100.00
73860;BME280;62197;51.632;13.700;2022-12-10T13:45:31;99619.63;;;-1.29;100.00
73860;BME280;62197;51.632;13.700;2022-12-10T13:48:36;99624.31;;;-1.23;100.00
73860;BME280;62197;51.632;13.700;2022-12-10T13:51:24;99622.31;;;-1.14;100.00
73860;BME280;62197;51.632;13.700;2022-12-10T13:54:13;99618.69;;;-1.21;100.00
73860;BME280;62197;51.632;13.700;2022-12-10T13:56:58;99609.34;;;-1.33;100.00
73860;BME280;62197;51.632;13.700;2022-12-10T13:59:49;99621.22;;;-1.34;100.00
73860;BME280;62197;51.632;13.700;2022-12-10T14:02:31;99631.97;;;-1.26;100.00
73860;BME280;62197;51.632;13.700;2022-12-10T14:05:14;99638.78;;;-1.30;100.00
73860;BME280;62197;51.632;13.700;2022-12-10T14:07:47;99636.06;;;-1.30;100.00
73860;BME280;62197;51.632;13.700;2022-12-10T14:10:16;99622.69;;;-1.46;100.00
73860;BME280;62197;51.632;13.700;2022-12-10T14:12:43;99636.81;;;-1.36;100.00
73860;BME280;62197;51.632;13.700;2022-12-10T14:15:18;99634.09;;;-1.36;100.00
73860;BME280;62197;51.632;13.700;2022-12-10T14:17:47;99629.81;;;-1.45;100.00